KBRL/BRL METAR and TAF weather

Enter ICAO airport designator
Station Type Date Time Source
KBRL METAR 2019/02/21 11:53 UTC NOAA

KBRL 211153Z AUTO 28005KT 9SM CLR M05/M08 A3011 RMK AO2 SLP205 70002 T10501083 11028 21050 53024


Station Type Date Time Source
KBRL Decoded METAR 2019/02/21 11:53 UTC NOAA

BURLINGTON REGIONAL AIRPORT, IA, United States (KBRL) 40-46N 91-08W 211M
Feb 21, 2019 - 06:53 AM EST / 2019.02.21 1153 UTC
Wind: from the W (280 degrees) at 6 MPH (5 KT):0
Visibility: 9 mile(s):0
Sky conditions: clear
Temperature: 23.0 F (-5.0 C)
Windchill: 15 F (-9 C):1
Dew Point: 17.1 F (-8.3 C)
Relative Humidity: 77%
Pressure (altimeter): 30.11 in. Hg (1019 hPa)
Pressure tendency: 0.07 inches (2.4 hPa) higher than three hours ago
ob: KBRL 211153Z AUTO 28005KT 9SM CLR M05/M08 A3011 RMK AO2 SLP205 70002 T10501083 11028 21050 53024
cycle: 12

Station Type Date Time Source
KBRL TAF 2019/02/21 12:39 UTC NOAA

TAF KBRL 211136Z 2112/2212 27007KT P6SM BKN250
FM220200 VRB03KT P6SM BKN250


Example: see airport list